sensor_id;sensor_type;location;lat;lon;timestamp;noise_LAeq;noise_LA_min;noise_LA_max;noise_LA01;noise_LA95
77135;Laerm;48586;50.122;18.972;2023-04-25T00:01:59;45.71;34.90;71.11;;
77135;Laerm;48586;50.122;18.972;2023-04-25T00:04:08;39.72;35.39;57.90;;
77135;Laerm;48586;50.122;18.972;2023-04-25T00:06:13;42.01;34.88;51.89;;
77135;Laerm;48586;50.122;18.972;2023-04-25T00:08:19;43.13;34.63;56.12;;
77135;Laerm;48586;50.122;18.972;2023-04-25T00:10:24;45.98;35.17;59.21;;
77135;Laerm;48586;50.122;18.972;2023-04-25T00:12:28;43.00;34.45;55.54;;
77135;Laerm;48586;50.122;18.972;2023-04-25T00:14:35;42.57;34.74;54.77;;
77135;Laerm;48586;50.122;18.972;2023-04-25T00:16:40;37.41;34.55;48.60;;
77135;Laerm;48586;50.122;18.972;2023-04-25T00:18:46;37.14;34.26;48.17;;
77135;Laerm;48586;50.122;18.972;2023-04-25T00:20:56;44.41;34.33;57.46;;
77135;Laerm;48586;50.122;18.972;2023-04-25T00:23:02;37.12;34.47;47.28;;
77135;Laerm;48586;50.122;18.972;2023-04-25T00:25:08;40.97;35.18;62.43;;
77135;Laerm;48586;50.122;18.972;2023-04-25T00:27:13;49.34;35.17;70.03;;
77135;Laerm;48586;50.122;18.972;2023-04-25T00:29:19;57.20;36.60;78.60;;
77135;Laerm;48586;50.122;18.972;2023-04-25T00:31:24;38.24;34.37;48.09;;
77135;Laerm;48586;50.122;18.972;2023-04-25T00:33:29;38.09;34.85;47.78;;
77135;Laerm;48586;50.122;18.972;2023-04-25T00:35:35;40.36;35.23;56.74;;
77135;Laerm;48586;50.122;18.972;2023-04-25T00:37:43;47.71;34.74;59.55;;
77135;Laerm;48586;50.122;18.972;2023-04-25T00:39:47;37.45;34.55;49.29;;
77135;Laerm;48586;50.122;18.972;2023-04-25T00:41:55;37.11;34.53;48.88;;
77135;Laerm;48586;50.122;18.972;2023-04-25T00:44:03;37.31;34.07;48.27;;
77135;Laerm;48586;50.122;18.972;2023-04-25T00:46:08;37.38;34.28;47.41;;
77135;Laerm;48586;50.122;18.972;2023-04-25T00:48:15;44.48;34.18;57.98;;
77135;Laerm;48586;50.122;18.972;2023-04-25T00:50:20;36.94;34.39;48.36;;
77135;Laerm;48586;50.122;18.972;2023-04-25T00:52:25;36.51;34.30;47.72;;
77135;Laerm;48586;50.122;18.972;2023-04-25T00:54:33;36.54;34.02;50.07;;
77135;Laerm;48586;50.122;18.972;2023-04-25T00:56:40;42.99;33.90;53.65;;
77135;Laerm;48586;50.122;18.972;2023-04-25T00:58:50;36.85;34.11;47.00;;
77135;Laerm;48586;50.122;18.972;2023-04-25T01:00:59;36.16;33.89;48.37;;
77135;Laerm;48586;50.122;18.972;2023-04-25T01:03:03;36.13;33.94;49.04;;
77135;Laerm;48586;50.122;18.972;2023-04-25T01:05:09;36.33;33.75;52.95;;
77135;Laerm;48586;50.122;18.972;2023-04-25T01:07:15;36.09;34.04;47.06;;
77135;Laerm;48586;50.122;18.972;2023-04-25T01:09:22;36.77;33.93;56.64;;
77135;Laerm;48586;50.122;18.972;2023-04-25T01:11:30;43.40;33.92;58.73;;
77135;Laerm;48586;50.122;18.972;2023-04-25T01:13:36;36.42;33.82;48.65;;
77135;Laerm;48586;50.122;18.972;2023-04-25T01:15:41;47.06;33.71;81.10;;
77135;Laerm;48586;50.122;18.972;2023-04-25T01:17:46;40.06;33.99;60.37;;
77135;Laerm;48586;50.122;18.972;2023-04-25T01:19:52;36.92;33.87;57.68;;
77135;Laerm;48586;50.122;18.972;2023-04-25T01:22:00;38.09;33.85;56.09;;
77135;Laerm;48586;50.122;18.972;2023-04-25T01:24:07;39.50;34.23;59.21;;
77135;Laerm;48586;50.122;18.972;2023-04-25T01:26:13;40.23;34.52;62.11;;
77135;Laerm;48586;50.122;18.972;2023-04-25T01:28:20;36.74;34.63;48.77;;
77135;Laerm;48586;50.122;18.972;2023-04-25T01:30:26;37.97;34.39;56.06;;
77135;Laerm;48586;50.122;18.972;2023-04-25T01:32:33;45.41;34.16;67.99;;
77135;Laerm;48586;50.122;18.972;2023-04-25T01:34:41;45.02;34.52;62.46;;
77135;Laerm;48586;50.122;18.972;2023-04-25T01:36:49;46.53;34.94;69.48;;
77135;Laerm;48586;50.122;18.972;2023-04-25T01:38:58;37.92;34.30;59.05;;
77135;Laerm;48586;50.122;18.972;2023-04-25T01:41:04;45.22;34.70;65.24;;
77135;Laerm;48586;50.122;18.972;2023-04-25T01:43:09;45.58;34.40;56.83;;
77135;Laerm;48586;50.122;18.972;2023-04-25T01:45:18;38.65;33.93;49.80;;
77135;Laerm;48586;50.122;18.972;2023-04-25T01:47:24;36.93;34.31;53.77;;
77135;Laerm;48586;50.122;18.972;2023-04-25T01:49:29;39.20;34.31;49.43;;
77135;Laerm;48586;50.122;18.972;2023-04-25T01:51:35;48.35;36.27;56.10;;
77135;Laerm;48586;50.122;18.972;2023-04-25T01:53:42;47.59;35.02;56.08;;
77135;Laerm;48586;50.122;18.972;2023-04-25T01:55:52;36.66;34.02;50.04;;
77135;Laerm;48586;50.122;18.972;2023-04-25T01:58:02;38.20;34.17;56.64;;
77135;Laerm;48586;50.122;18.972;2023-04-25T02:00:43;37.16;33.70;51.19;;
77135;Laerm;48586;50.122;18.972;2023-04-25T02:02:48;37.52;34.89;48.76;;
77135;Laerm;48586;50.122;18.972;2023-04-25T02:05:01;45.42;34.81;56.31;;
77135;Laerm;48586;50.122;18.972;2023-04-25T02:07:09;37.51;34.69;50.13;;
77135;Laerm;48586;50.122;18.972;2023-04-25T02:09:26;38.53;34.75;54.22;;
77135;Laerm;48586;50.122;18.972;2023-04-25T02:11:35;39.96;34.47;50.79;;
77135;Laerm;48586;50.122;18.972;2023-04-25T02:13:57;39.67;34.74;50.05;;
77135;Laerm;48586;50.122;18.972;2023-04-25T02:16:13;42.98;35.19;61.54;;
77135;Laerm;48586;50.122;18.972;2023-04-25T02:18:19;38.59;35.03;59.23;;
77135;Laerm;48586;50.122;18.972;2023-04-25T02:20:24;38.89;34.78;52.77;;
77135;Laerm;48586;50.122;18.972;2023-04-25T02:22:29;45.96;36.19;64.01;;
77135;Laerm;48586;50.122;18.972;2023-04-25T02:24:36;42.12;37.59;63.03;;
77135;Laerm;48586;50.122;18.972;2023-04-25T02:26:42;40.91;37.37;59.65;;
77135;Laerm;48586;50.122;18.972;2023-04-25T02:28:48;47.50;38.03;66.39;;
77135;Laerm;48586;50.122;18.972;2023-04-25T02:30:55;45.85;37.69;60.38;;
77135;Laerm;48586;50.122;18.972;2023-04-25T02:32:59;45.01;37.53;61.57;;
77135;Laerm;48586;50.122;18.972;2023-04-25T02:35:05;43.04;37.72;58.09;;
77135;Laerm;48586;50.122;18.972;2023-04-25T02:37:10;45.55;37.06;58.85;;
77135;Laerm;48586;50.122;18.972;2023-04-25T02:39:14;45.23;35.90;57.19;;
77135;Laerm;48586;50.122;18.972;2023-04-25T02:41:18;47.27;37.26;67.95;;
77135;Laerm;48586;50.122;18.972;2023-04-25T02:43:26;45.16;36.77;56.28;;
77135;Laerm;48586;50.122;18.972;2023-04-25T02:45:30;46.25;36.36;54.74;;
77135;Laerm;48586;50.122;18.972;2023-04-25T02:47:34;42.23;36.51;54.73;;
77135;Laerm;48586;50.122;18.972;2023-04-25T02:49:39;43.54;36.15;61.58;;
77135;Laerm;48586;50.122;18.972;2023-04-25T02:51:44;47.15;36.25;60.59;;
77135;Laerm;48586;50.122;18.972;2023-04-25T02:53:48;46.11;36.01;57.93;;
77135;Laerm;48586;50.122;18.972;2023-04-25T02:55:53;49.08;36.05;60.52;;
77135;Laerm;48586;50.122;18.972;2023-04-25T02:57:59;49.93;37.62;62.08;;
77135;Laerm;48586;50.122;18.972;2023-04-25T03:00:24;42.53;35.89;54.14;;
77135;Laerm;48586;50.122;18.972;2023-04-25T03:02:29;50.03;37.79;60.62;;
77135;Laerm;48586;50.122;18.972;2023-04-25T03:04:33;50.23;38.35;57.99;;
77135;Laerm;48586;50.122;18.972;2023-04-25T03:06:38;46.04;36.66;54.81;;
77135;Laerm;48586;50.122;18.972;2023-04-25T03:08:42;51.03;38.10;58.70;;
77135;Laerm;48586;50.122;18.972;2023-04-25T03:10:47;46.26;36.39;54.85;;
77135;Laerm;48586;50.122;18.972;2023-04-25T03:12:53;50.86;37.73;62.00;;
77135;Laerm;48586;50.122;18.972;2023-04-25T03:14:58;48.68;36.09;56.90;;
77135;Laerm;48586;50.122;18.972;2023-04-25T03:17:05;49.71;38.35;62.71;;
77135;Laerm;48586;50.122;18.972;2023-04-25T03:19:10;46.63;37.10;56.68;;
77135;Laerm;48586;50.122;18.972;2023-04-25T03:21:17;48.19;38.93;58.29;;
77135;Laerm;48586;50.122;18.972;2023-04-25T03:23:21;49.39;38.95;56.07;;
77135;Laerm;48586;50.122;18.972;2023-04-25T03:25:26;50.45;38.22;65.93;;
77135;Laerm;48586;50.122;18.972;2023-04-25T03:27:30;52.20;37.70;68.17;;
77135;Laerm;48586;50.122;18.972;2023-04-25T03:29:34;47.03;39.10;54.62;;
77135;Laerm;48586;50.122;18.972;2023-04-25T03:31:39;47.13;38.80;53.94;;
77135;Laerm;48586;50.122;18.972;2023-04-25T03:33:47;53.35;43.42;71.67;;
77135;Laerm;48586;50.122;18.972;2023-04-25T03:35:56;50.59;39.37;67.55;;
77135;Laerm;48586;50.122;18.972;2023-04-25T03:38:02;47.83;39.74;55.43;;
77135;Laerm;48586;50.122;18.972;2023-04-25T03:40:12;52.04;39.83;58.97;;
77135;Laerm;48586;50.122;18.972;2023-04-25T03:42:40;49.90;38.90;61.39;;
77135;Laerm;48586;50.122;18.972;2023-04-25T03:44:44;52.52;37.77;61.48;;
77135;Laerm;48586;50.122;18.972;2023-04-25T03:46:49;48.74;39.00;55.77;;
77135;Laerm;48586;50.122;18.972;2023-04-25T03:48:56;48.75;38.31;56.83;;
77135;Laerm;48586;50.122;18.972;2023-04-25T03:51:11;49.81;40.38;59.86;;
77135;Laerm;48586;50.122;18.972;2023-04-25T03:53:21;47.73;36.60;55.96;;
77135;Laerm;48586;50.122;18.972;2023-04-25T03:55:52;48.97;36.84;59.21;;
77135;Laerm;48586;50.122;18.972;2023-04-25T03:57:57;48.58;37.79;56.23;;
77135;Laerm;48586;50.122;18.972;2023-04-25T04:00:04;43.70;36.72;52.26;;
77135;Laerm;48586;50.122;18.972;2023-04-25T04:02:15;47.39;35.90;66.33;;
77135;Laerm;48586;50.122;18.972;2023-04-25T04:04:23;48.15;37.27;55.52;;
77135;Laerm;48586;50.122;18.972;2023-04-25T04:06:30;51.72;40.42;59.56;;
77135;Laerm;48586;50.122;18.972;2023-04-25T04:08:42;49.02;35.83;58.23;;
77135;Laerm;48586;50.122;18.972;2023-04-25T04:10:46;50.80;41.94;61.83;;
77135;Laerm;48586;50.122;18.972;2023-04-25T04:12:51;51.30;41.73;60.48;;
77135;Laerm;48586;50.122;18.972;2023-04-25T04:14:55;52.65;42.05;58.10;;
77135;Laerm;48586;50.122;18.972;2023-04-25T04:16:59;47.74;37.48;55.51;;
77135;Laerm;48586;50.122;18.972;2023-04-25T04:19:05;50.29;38.24;57.65;;
77135;Laerm;48586;50.122;18.972;2023-04-25T04:21:12;52.66;37.48;73.34;;
77135;Laerm;48586;50.122;18.972;2023-04-25T04:23:16;50.86;40.88;58.65;;
77135;Laerm;48586;50.122;18.972;2023-04-25T04:25:21;49.11;38.06;58.42;;
77135;Laerm;48586;50.122;18.972;2023-04-25T04:27:48;51.94;37.28;61.20;;
77135;Laerm;48586;50.122;18.972;2023-04-25T04:30:08;50.24;41.10;65.24;;
77135;Laerm;48586;50.122;18.972;2023-04-25T04:32:26;47.11;37.82;56.59;;
77135;Laerm;48586;50.122;18.972;2023-04-25T04:34:31;48.60;40.63;56.62;;
77135;Laerm;48586;50.122;18.972;2023-04-25T04:36:38;49.88;37.45;60.29;;
77135;Laerm;48586;50.122;18.972;2023-04-25T04:38:45;49.91;36.84;57.66;;
77135;Laerm;48586;50.122;18.972;2023-04-25T04:40:58;50.41;40.33;56.97;;
77135;Laerm;48586;50.122;18.972;2023-04-25T04:43:29;52.90;44.32;61.96;;
77135;Laerm;48586;50.122;18.972;2023-04-25T04:46:00;49.89;41.51;56.05;;
77135;Laerm;48586;50.122;18.972;2023-04-25T04:48:22;50.51;39.61;57.39;;
77135;Laerm;48586;50.122;18.972;2023-04-25T04:50:35;51.45;41.87;57.91;;
77135;Laerm;48586;50.122;18.972;2023-04-25T04:53:04;50.87;42.23;57.34;;
77135;Laerm;48586;50.122;18.972;2023-04-25T04:55:19;52.06;45.34;59.20;;
77135;Laerm;48586;50.122;18.972;2023-04-25T04:57:39;52.59;42.25;58.72;;
77135;Laerm;48586;50.122;18.972;2023-04-25T05:00:22;52.26;43.55;59.12;;
77135;Laerm;48586;50.122;18.972;2023-04-25T05:02:45;51.60;42.00;60.05;;
77135;Laerm;48586;50.122;18.972;2023-04-25T05:05:07;51.01;40.59;58.33;;
77135;Laerm;48586;50.122;18.972;2023-04-25T05:07:35;52.27;45.85;58.08;;
77135;Laerm;48586;50.122;18.972;2023-04-25T05:09:47;53.03;44.84;60.80;;
77135;Laerm;48586;50.122;18.972;2023-04-25T05:12:10;47.76;38.15;57.16;;
77135;Laerm;48586;50.122;18.972;2023-04-25T05:14:27;49.59;40.76;59.26;;
77135;Laerm;48586;50.122;18.972;2023-04-25T05:16:50;51.13;39.35;58.65;;
77135;Laerm;48586;50.122;18.972;2023-04-25T05:19:11;50.32;42.06;60.21;;
77135;Laerm;48586;50.122;18.972;2023-04-25T05:21:27;51.73;41.31;61.04;;
77135;Laerm;48586;50.122;18.972;2023-04-25T05:23:52;52.38;39.99;61.72;;
77135;Laerm;48586;50.122;18.972;2023-04-25T05:26:23;51.55;39.79;60.48;;
77135;Laerm;48586;50.122;18.972;2023-04-25T05:28:36;52.10;43.83;61.14;;
77135;Laerm;48586;50.122;18.972;2023-04-25T05:30:57;52.79;44.47;60.74;;
77135;Laerm;48586;50.122;18.972;2023-04-25T05:33:12;52.80;44.81;57.86;;
77135;Laerm;48586;50.122;18.972;2023-04-25T05:35:18;53.00;43.76;62.21;;
77135;Laerm;48586;50.122;18.972;2023-04-25T05:37:25;50.40;38.88;57.91;;
77135;Laerm;48586;50.122;18.972;2023-04-25T05:39:41;52.61;43.61;59.04;;
77135;Laerm;48586;50.122;18.972;2023-04-25T05:41:54;52.66;42.15;63.12;;
77135;Laerm;48586;50.122;18.972;2023-04-25T05:44:17;51.23;39.84;57.78;;
77135;Laerm;48586;50.122;18.972;2023-04-25T05:46:35;70.82;43.75;83.95;;
77135;Laerm;48586;50.122;18.972;2023-04-25T05:48:57;52.46;44.84;61.06;;
77135;Laerm;48586;50.122;18.972;2023-04-25T05:51:30;51.87;45.56;56.67;;
77135;Laerm;48586;50.122;18.972;2023-04-25T05:54:02;52.75;45.23;67.29;;
77135;Laerm;48586;50.122;18.972;2023-04-25T05:56:08;49.49;42.63;58.87;;
77135;Laerm;48586;50.122;18.972;2023-04-25T05:58:15;54.12;43.53;67.95;;
77135;Laerm;48586;50.122;18.972;2023-04-25T06:00:21;48.46;41.37;64.16;;
77135;Laerm;48586;50.122;18.972;2023-04-25T06:02:26;50.95;43.68;63.61;;
77135;Laerm;48586;50.122;18.972;2023-04-25T06:04:31;50.09;40.18;59.16;;
77135;Laerm;48586;50.122;18.972;2023-04-25T06:06:37;52.28;40.14;59.79;;
77135;Laerm;48586;50.122;18.972;2023-04-25T06:08:42;52.13;42.95;62.01;;
77135;Laerm;48586;50.122;18.972;2023-04-25T06:10:46;52.05;44.02;64.04;;
77135;Laerm;48586;50.122;18.972;2023-04-25T06:12:53;49.36;40.39;63.98;;
77135;Laerm;48586;50.122;18.972;2023-04-25T06:15:01;52.76;41.89;69.35;;
77135;Laerm;48586;50.122;18.972;2023-04-25T06:17:06;50.28;41.00;62.61;;
77135;Laerm;48586;50.122;18.972;2023-04-25T06:19:12;52.06;45.29;69.69;;
77135;Laerm;48586;50.122;18.972;2023-04-25T06:21:17;49.95;39.21;65.40;;
77135;Laerm;48586;50.122;18.972;2023-04-25T06:23:25;51.12;38.92;63.66;;
77135;Laerm;48586;50.122;18.972;2023-04-25T06:25:38;49.04;40.52;61.11;;
77135;Laerm;48586;50.122;18.972;2023-04-25T06:27:44;50.41;39.46;61.60;;
77135;Laerm;48586;50.122;18.972;2023-04-25T06:29:49;47.73;40.85;54.85;;
77135;Laerm;48586;50.122;18.972;2023-04-25T06:31:58;49.54;41.21;58.45;;
77135;Laerm;48586;50.122;18.972;2023-04-25T06:34:03;49.90;40.60;56.93;;
77135;Laerm;48586;50.122;18.972;2023-04-25T06:36:11;49.81;40.10;57.06;;
77135;Laerm;48586;50.122;18.972;2023-04-25T06:38:19;49.85;42.70;56.31;;
77135;Laerm;48586;50.122;18.972;2023-04-25T06:40:27;48.51;37.73;56.05;;
77135;Laerm;48586;50.122;18.972;2023-04-25T06:42:32;54.21;40.20;75.16;;
77135;Laerm;48586;50.122;18.972;2023-04-25T06:44:57;50.06;40.64;56.11;;
77135;Laerm;48586;50.122;18.972;2023-04-25T06:47:07;50.07;43.54;56.61;;
77135;Laerm;48586;50.122;18.972;2023-04-25T06:49:12;50.46;41.38;69.01;;
77135;Laerm;48586;50.122;18.972;2023-04-25T06:51:18;52.29;41.75;67.38;;
77135;Laerm;48586;50.122;18.972;2023-04-25T06:53:25;50.43;40.00;62.34;;
77135;Laerm;48586;50.122;18.972;2023-04-25T06:55:35;49.89;40.38;56.59;;
77135;Laerm;48586;50.122;18.972;2023-04-25T06:58:00;53.16;44.55;60.27;;
77135;Laerm;48586;50.122;18.972;2023-04-25T07:00:24;51.27;41.31;67.67;;
77135;Laerm;48586;50.122;18.972;2023-04-25T07:02:33;47.20;38.48;55.69;;
77135;Laerm;48586;50.122;18.972;2023-04-25T07:04:40;49.27;39.70;58.51;;
77135;Laerm;48586;50.122;18.972;2023-04-25T07:06:47;50.07;43.54;56.08;;
77135;Laerm;48586;50.122;18.972;2023-04-25T07:08:55;49.16;39.84;54.95;;
77135;Laerm;48586;50.122;18.972;2023-04-25T07:11:01;50.09;42.69;56.68;;
77135;Laerm;48586;50.122;18.972;2023-04-25T07:13:06;48.64;38.90;67.40;;
77135;Laerm;48586;50.122;18.972;2023-04-25T07:15:11;51.10;42.11;63.56;;
77135;Laerm;48586;50.122;18.972;2023-04-25T07:17:20;48.79;39.59;65.01;;
77135;Laerm;48586;50.122;18.972;2023-04-25T07:19:28;48.98;42.41;55.58;;
77135;Laerm;48586;50.122;18.972;2023-04-25T07:21:36;48.28;37.20;56.07;;
77135;Laerm;48586;50.122;18.972;2023-04-25T07:23:43;48.06;38.08;67.63;;
77135;Laerm;48586;50.122;18.972;2023-04-25T07:25:52;47.73;37.59;62.27;;
77135;Laerm;48586;50.122;18.972;2023-04-25T07:27:59;51.03;39.49;63.62;;
77135;Laerm;48586;50.122;18.972;2023-04-25T07:30:06;48.79;38.07;57.43;;
77135;Laerm;48586;50.122;18.972;2023-04-25T07:32:15;50.49;38.90;60.47;;
77135;Laerm;48586;50.122;18.972;2023-04-25T07:34:19;50.70;42.15;59.02;;
77135;Laerm;48586;50.122;18.972;2023-04-25T07:36:27;48.60;37.90;58.99;;
77135;Laerm;48586;50.122;18.972;2023-04-25T07:38:32;48.92;37.99;61.15;;
77135;Laerm;48586;50.122;18.972;2023-04-25T07:40:38;50.68;42.47;60.75;;
77135;Laerm;48586;50.122;18.972;2023-04-25T07:42:46;50.43;42.02;57.61;;
77135;Laerm;48586;50.122;18.972;2023-04-25T07:44:55;50.64;40.99;58.68;;
77135;Laerm;48586;50.122;18.972;2023-04-25T07:46:59;48.50;39.05;55.48;;
77135;Laerm;48586;50.122;18.972;2023-04-25T07:49:07;50.80;42.96;57.40;;
77135;Laerm;48586;50.122;18.972;2023-04-25T07:51:15;46.37;36.91;57.49;;
77135;Laerm;48586;50.122;18.972;2023-04-25T07:53:24;48.41;41.14;57.68;;
77135;Laerm;48586;50.122;18.972;2023-04-25T07:55:35;49.60;42.47;64.25;;
77135;Laerm;48586;50.122;18.972;2023-04-25T07:57:50;49.43;40.43;57.45;;
77135;Laerm;48586;50.122;18.972;2023-04-25T07:59:55;49.63;37.98;61.10;;
77135;Laerm;48586;50.122;18.972;2023-04-25T08:02:02;47.72;41.03;55.71;;
77135;Laerm;48586;50.122;18.972;2023-04-25T08:04:08;47.66;38.74;55.19;;
77135;Laerm;48586;50.122;18.972;2023-04-25T08:06:27;48.68;38.94;59.87;;
77135;Laerm;48586;50.122;18.972;2023-04-25T08:08:44;49.88;40.98;58.72;;
77135;Laerm;48586;50.122;18.972;2023-04-25T08:10:52;49.91;39.05;61.48;;
77135;Laerm;48586;50.122;18.972;2023-04-25T08:12:58;48.00;40.51;55.64;;
77135;Laerm;48586;50.122;18.972;2023-04-25T08:15:08;49.38;42.59;56.62;;
77135;Laerm;48586;50.122;18.972;2023-04-25T08:17:15;49.49;37.98;63.43;;
77135;Laerm;48586;50.122;18.972;2023-04-25T08:19:22;50.27;40.22;66.24;;
77135;Laerm;48586;50.122;18.972;2023-04-25T08:21:28;49.03;39.72;55.96;;
77135;Laerm;48586;50.122;18.972;2023-04-25T08:23:35;50.22;43.29;60.19;;
77135;Laerm;48586;50.122;18.972;2023-04-25T08:26:00;53.06;40.13;73.17;;
77135;Laerm;48586;50.122;18.972;2023-04-25T08:28:07;51.87;39.65;69.82;;
77135;Laerm;48586;50.122;18.972;2023-04-25T08:30:14;49.18;39.53;59.62;;
77135;Laerm;48586;50.122;18.972;2023-04-25T08:32:18;50.17;42.41;67.16;;
77135;Laerm;48586;50.122;18.972;2023-04-25T08:34:46;47.51;37.06;59.19;;
77135;Laerm;48586;50.122;18.972;2023-04-25T08:36:52;49.01;41.12;58.84;;
77135;Laerm;48586;50.122;18.972;2023-04-25T08:39:13;50.36;41.13;59.23;;
77135;Laerm;48586;50.122;18.972;2023-04-25T08:41:37;47.69;38.88;73.39;;
77135;Laerm;48586;50.122;18.972;2023-04-25T08:43:43;49.34;40.58;57.22;;
77135;Laerm;48586;50.122;18.972;2023-04-25T08:45:48;48.02;37.78;57.25;;
77135;Laerm;48586;50.122;18.972;2023-04-25T08:48:12;51.10;38.37;67.21;;
77135;Laerm;48586;50.122;18.972;2023-04-25T08:50:18;49.86;36.51;76.37;;
77135;Laerm;48586;50.122;18.972;2023-04-25T08:52:32;49.85;41.30;58.69;;
77135;Laerm;48586;50.122;18.972;2023-04-25T08:54:43;50.49;41.19;62.48;;
77135;Laerm;48586;50.122;18.972;2023-04-25T08:56:57;49.98;39.71;57.64;;
77135;Laerm;48586;50.122;18.972;2023-04-25T08:59:03;51.90;43.83;65.47;;
77135;Laerm;48586;50.122;18.972;2023-04-25T09:01:12;48.41;39.08;63.75;;
77135;Laerm;48586;50.122;18.972;2023-04-25T09:03:24;48.35;38.01;54.77;;
77135;Laerm;48586;50.122;18.972;2023-04-25T09:05:28;50.90;38.50;64.00;;
77135;Laerm;48586;50.122;18.972;2023-04-25T09:07:35;49.48;42.84;59.18;;
77135;Laerm;48586;50.122;18.972;2023-04-25T09:09:42;49.08;38.92;65.94;;
77135;Laerm;48586;50.122;18.972;2023-04-25T09:11:46;48.30;39.96;55.68;;
77135;Laerm;48586;50.122;18.972;2023-04-25T09:14:13;48.47;38.26;58.62;;
77135;Laerm;48586;50.122;18.972;2023-04-25T09:16:34;50.66;39.38;68.07;;
77135;Laerm;48586;50.122;18.972;2023-04-25T09:19:06;47.66;40.08;62.72;;
77135;Laerm;48586;50.122;18.972;2023-04-25T09:21:12;49.08;36.42;57.36;;
77135;Laerm;48586;50.122;18.972;2023-04-25T09:23:23;44.20;36.40;53.92;;
77135;Laerm;48586;50.122;18.972;2023-04-25T09:25:35;47.15;39.49;54.35;;
77135;Laerm;48586;50.122;18.972;2023-04-25T09:27:50;46.91;37.98;61.29;;
77135;Laerm;48586;50.122;18.972;2023-04-25T09:30:11;48.63;37.15;57.36;;
77135;Laerm;48586;50.122;18.972;2023-04-25T09:32:36;49.52;39.09;59.11;;
77135;Laerm;48586;50.122;18.972;2023-04-25T09:34:44;49.53;41.55;66.71;;
77135;Laerm;48586;50.122;18.972;2023-04-25T09:36:54;48.79;38.81;63.13;;
77135;Laerm;48586;50.122;18.972;2023-04-25T09:39:18;47.78;41.69;62.69;;
77135;Laerm;48586;50.122;18.972;2023-04-25T09:41:37;51.20;42.78;71.80;;
77135;Laerm;48586;50.122;18.972;2023-04-25T09:43:46;49.33;40.11;58.20;;
77135;Laerm;48586;50.122;18.972;2023-04-25T09:45:55;49.38;37.92;60.29;;
77135;Laerm;48586;50.122;18.972;2023-04-25T09:48:04;49.59;42.89;66.10;;
77135;Laerm;48586;50.122;18.972;2023-04-25T09:50:17;50.97;39.09;67.59;;
77135;Laerm;48586;50.122;18.972;2023-04-25T09:52:31;49.13;40.97;58.45;;
77135;Laerm;48586;50.122;18.972;2023-04-25T09:54:49;48.45;39.40;64.07;;
77135;Laerm;48586;50.122;18.972;2023-04-25T09:57:11;49.70;38.86;67.32;;
77135;Laerm;48586;50.122;18.972;2023-04-25T09:59:21;51.39;39.06;70.47;;
77135;Laerm;48586;50.122;18.972;2023-04-25T10:01:31;70.17;40.86;87.72;;
77135;Laerm;48586;50.122;18.972;2023-04-25T10:03:51;62.44;39.67;82.88;;
77135;Laerm;48586;50.122;18.972;2023-04-25T10:06:22;51.09;38.54;64.40;;
77135;Laerm;48586;50.122;18.972;2023-04-25T10:08:34;50.78;40.31;69.87;;
77135;Laerm;48586;50.122;18.972;2023-04-25T10:10:41;52.74;43.00;67.76;;
77135;Laerm;48586;50.122;18.972;2023-04-25T10:12:48;53.83;39.88;73.83;;
77135;Laerm;48586;50.122;18.972;2023-04-25T10:14:55;53.86;40.84;74.35;;
77135;Laerm;48586;50.122;18.972;2023-04-25T10:17:03;50.31;40.80;67.28;;
77135;Laerm;48586;50.122;18.972;2023-04-25T10:19:10;50.13;41.11;68.68;;
77135;Laerm;48586;50.122;18.972;2023-04-25T10:21:16;50.98;40.20;66.00;;
77135;Laerm;48586;50.122;18.972;2023-04-25T10:23:23;52.20;41.47;70.98;;
77135;Laerm;48586;50.122;18.972;2023-04-25T10:25:28;51.88;41.70;72.86;;
77135;Laerm;48586;50.122;18.972;2023-04-25T10:27:35;50.48;42.31;64.88;;
77135;Laerm;48586;50.122;18.972;2023-04-25T10:29:41;50.01;41.17;58.56;;
77135;Laerm;48586;50.122;18.972;2023-04-25T10:31:48;48.94;39.48;58.13;;
77135;Laerm;48586;50.122;18.972;2023-04-25T10:33:57;48.68;39.16;57.05;;
77135;Laerm;48586;50.122;18.972;2023-04-25T10:36:11;50.27;41.26;63.81;;
77135;Laerm;48586;50.122;18.972;2023-04-25T10:38:18;50.53;40.92;64.54;;
77135;Laerm;48586;50.122;18.972;2023-04-25T10:40:24;51.69;40.00;67.22;;
77135;Laerm;48586;50.122;18.972;2023-04-25T10:42:30;52.84;39.02;65.48;;
77135;Laerm;48586;50.122;18.972;2023-04-25T10:44:38;49.27;40.02;62.40;;
77135;Laerm;48586;50.122;18.972;2023-04-25T10:46:45;49.38;40.15;62.00;;
77135;Laerm;48586;50.122;18.972;2023-04-25T10:48:51;49.63;41.50;68.72;;
77135;Laerm;48586;50.122;18.972;2023-04-25T10:51:20;51.47;42.71;68.41;;
77135;Laerm;48586;50.122;18.972;2023-04-25T10:53:25;48.29;39.49;69.10;;
77135;Laerm;48586;50.122;18.972;2023-04-25T10:55:50;49.65;41.01;64.82;;
77135;Laerm;48586;50.122;18.972;2023-04-25T10:57:56;49.59;40.17;59.47;;
77135;Laerm;48586;50.122;18.972;2023-04-25T11:00:08;46.96;39.36;65.14;;
77135;Laerm;48586;50.122;18.972;2023-04-25T11:02:16;50.25;44.35;59.58;;
77135;Laerm;48586;50.122;18.972;2023-04-25T11:04:24;52.88;43.98;67.46;;
77135;Laerm;48586;50.122;18.972;2023-04-25T11:06:51;56.18;44.30;69.48;;
77135;Laerm;48586;50.122;18.972;2023-04-25T11:09:01;54.98;46.10;63.77;;
77135;Laerm;48586;50.122;18.972;2023-04-25T11:11:09;56.21;45.93;68.49;;
77135;Laerm;48586;50.122;18.972;2023-04-25T11:13:14;54.81;47.11;71.19;;
77135;Laerm;48586;50.122;18.972;2023-04-25T11:15:20;54.88;44.19;68.91;;
77135;Laerm;48586;50.122;18.972;2023-04-25T11:17:26;52.86;41.34;64.62;;
77135;Laerm;48586;50.122;18.972;2023-04-25T11:19:31;47.68;40.73;57.23;;
77135;Laerm;48586;50.122;18.972;2023-04-25T11:21:39;49.36;37.47;58.03;;
77135;Laerm;48586;50.122;18.972;2023-04-25T11:23:46;48.50;40.08;59.65;;
77135;Laerm;48586;50.122;18.972;2023-04-25T11:25:51;49.38;40.73;56.87;;
77135;Laerm;48586;50.122;18.972;2023-04-25T11:28:00;49.52;38.67;64.98;;
77135;Laerm;48586;50.122;18.972;2023-04-25T11:30:15;53.06;41.73;62.00;;
77135;Laerm;48586;50.122;18.972;2023-04-25T11:32:21;50.68;42.45;59.68;;
77135;Laerm;48586;50.122;18.972;2023-04-25T11:34:26;50.51;39.30;62.10;;
77135;Laerm;48586;50.122;18.972;2023-04-25T11:36:33;55.40;40.12;66.77;;
77135;Laerm;48586;50.122;18.972;2023-04-25T11:38:41;49.54;38.00;63.44;;
77135;Laerm;48586;50.122;18.972;2023-04-25T11:40:51;47.70;38.18;59.40;;
77135;Laerm;48586;50.122;18.972;2023-04-25T11:43:01;51.02;43.25;58.37;;
77135;Laerm;48586;50.122;18.972;2023-04-25T11:45:07;48.23;42.13;63.07;;
77135;Laerm;48586;50.122;18.972;2023-04-25T11:47:12;51.47;41.68;64.69;;
77135;Laerm;48586;50.122;18.972;2023-04-25T11:49:18;52.24;42.52;61.99;;
77135;Laerm;48586;50.122;18.972;2023-04-25T11:51:24;50.38;41.70;59.95;;
77135;Laerm;48586;50.122;18.972;2023-04-25T11:53:28;50.03;40.38;56.92;;
77135;Laerm;48586;50.122;18.972;2023-04-25T11:55:37;51.71;40.25;63.96;;
77135;Laerm;48586;50.122;18.972;2023-04-25T11:57:46;52.89;44.86;71.29;;